sensor_id;sensor_type;location;lat;lon;timestamp;P1;durP1;ratioP1;P2;durP2;ratioP2
70780;SDS011;59514;48.810;2.134;2022-12-07T00:01:27;106.15;;;20.35;;
70780;SDS011;59514;48.810;2.134;2022-12-07T00:03:54;50.85;;;16.85;;
70780;SDS011;59514;48.810;2.134;2022-12-07T00:06:35;40.63;;;17.85;;
70780;SDS011;59514;48.810;2.134;2022-12-07T00:09:03;90.70;;;19.17;;
70780;SDS011;59514;48.810;2.134;2022-12-07T00:11:30;126.05;;;19.58;;
70780;SDS011;59514;48.810;2.134;2022-12-07T00:13:56;158.18;;;20.05;;
70780;SDS011;59514;48.810;2.134;2022-12-07T00:16:24;45.08;;;16.67;;
70780;SDS011;59514;48.810;2.134;2022-12-07T00:18:51;55.45;;;16.45;;
70780;SDS011;59514;48.810;2.134;2022-12-07T00:21:18;65.70;;;18.05;;
70780;SDS011;59514;48.810;2.134;2022-12-07T00:23:46;133.10;;;21.33;;
70780;SDS011;59514;48.810;2.134;2022-12-07T00:26:14;107.82;;;18.08;;
70780;SDS011;59514;48.810;2.134;2022-12-07T00:28:44;113.63;;;18.60;;
70780;SDS011;59514;48.810;2.134;2022-12-07T00:31:11;69.47;;;17.55;;
70780;SDS011;59514;48.810;2.134;2022-12-07T00:33:38;61.10;;;15.80;;
70780;SDS011;59514;48.810;2.134;2022-12-07T00:36:04;111.00;;;16.85;;
70780;SDS011;59514;48.810;2.134;2022-12-07T00:38:33;46.17;;;13.88;;
70780;SDS011;59514;48.810;2.134;2022-12-07T00:41:42;34.08;;;14.18;;
70780;SDS011;59514;48.810;2.134;2022-12-07T00:43:50;25.52;;;13.10;;
70780;SDS011;59514;48.810;2.134;2022-12-07T00:46:15;119.72;;;17.10;;
70780;SDS011;59514;48.810;2.134;2022-12-07T00:48:42;152.90;;;18.67;;
70780;SDS011;59514;48.810;2.134;2022-12-07T00:51:09;46.70;;;13.32;;
70780;SDS011;59514;48.810;2.134;2022-12-07T00:53:36;26.85;;;13.80;;
70780;SDS011;59514;48.810;2.134;2022-12-07T00:56:06;108.18;;;17.40;;
70780;SDS011;59514;48.810;2.134;2022-12-07T00:58:36;110.65;;;16.63;;
70780;SDS011;59514;48.810;2.134;2022-12-07T01:01:02;42.45;;;14.00;;
70780;SDS011;59514;48.810;2.134;2022-12-07T01:03:29;98.45;;;16.42;;
70780;SDS011;59514;48.810;2.134;2022-12-07T01:05:55;74.50;;;16.05;;
70780;SDS011;59514;48.810;2.134;2022-12-07T01:08:22;135.77;;;19.20;;
70780;SDS011;59514;48.810;2.134;2022-12-07T01:10:48;116.78;;;17.80;;
70780;SDS011;59514;48.810;2.134;2022-12-07T01:13:14;137.60;;;19.70;;
70780;SDS011;59514;48.810;2.134;2022-12-07T01:15:40;76.72;;;16.67;;
70780;SDS011;59514;48.810;2.134;2022-12-07T01:18:06;37.30;;;15.00;;
70780;SDS011;59514;48.810;2.134;2022-12-07T01:20:32;102.50;;;18.02;;
70780;SDS011;59514;48.810;2.134;2022-12-07T01:22:57;101.53;;;17.85;;
70780;SDS011;59514;48.810;2.134;2022-12-07T01:25:22;86.00;;;18.35;;
70780;SDS011;59514;48.810;2.134;2022-12-07T01:27:47;59.45;;;17.77;;
70780;SDS011;59514;48.810;2.134;2022-12-07T01:30:13;59.75;;;17.77;;
70780;SDS011;59514;48.810;2.134;2022-12-07T01:32:39;79.32;;;18.88;;
70780;SDS011;59514;48.810;2.134;2022-12-07T01:35:04;116.25;;;20.88;;
70780;SDS011;59514;48.810;2.134;2022-12-07T01:37:33;81.63;;;17.88;;
70780;SDS011;59514;48.810;2.134;2022-12-07T01:40:00;132.90;;;21.58;;
70780;SDS011;59514;48.810;2.134;2022-12-07T01:42:25;49.92;;;19.08;;
70780;SDS011;59514;48.810;2.134;2022-12-07T01:50:41;83.60;;;19.02;;
70780;SDS011;59514;48.810;2.134;2022-12-07T01:53:08;65.95;;;18.80;;
70780;SDS011;59514;48.810;2.134;2022-12-07T01:55:36;54.67;;;18.33;;
70780;SDS011;59514;48.810;2.134;2022-12-07T01:58:03;138.02;;;24.38;;
70780;SDS011;59514;48.810;2.134;2022-12-07T02:00:29;41.10;;;17.70;;
70780;SDS011;59514;48.810;2.134;2022-12-07T02:02:55;81.22;;;20.35;;
70780;SDS011;59514;48.810;2.134;2022-12-07T02:05:26;61.63;;;20.08;;
70780;SDS011;59514;48.810;2.134;2022-12-07T02:07:53;52.30;;;18.83;;
70780;SDS011;59514;48.810;2.134;2022-12-07T02:10:23;61.78;;;20.38;;
70780;SDS011;59514;48.810;2.134;2022-12-07T02:12:55;37.90;;;18.10;;
70780;SDS011;59514;48.810;2.134;2022-12-07T02:21:51;26.17;;;16.48;;
70780;SDS011;59514;48.810;2.134;2022-12-07T02:27:10;31.75;;;17.75;;
70780;SDS011;59514;48.810;2.134;2022-12-07T02:35:13;32.08;;;16.58;;
70780;SDS011;59514;48.810;2.134;2022-12-07T02:42:47;25.73;;;16.02;;
70780;SDS011;59514;48.810;2.134;2022-12-07T02:45:17;20.15;;;14.60;;
70780;SDS011;59514;48.810;2.134;2022-12-07T02:47:47;26.25;;;16.38;;
70780;SDS011;59514;48.810;2.134;2022-12-07T02:50:17;23.50;;;15.60;;
70780;SDS011;59514;48.810;2.134;2022-12-07T02:52:44;21.38;;;15.30;;
70780;SDS011;59514;48.810;2.134;2022-12-07T02:55:10;22.20;;;15.75;;
70780;SDS011;59514;48.810;2.134;2022-12-07T02:57:50;21.05;;;14.98;;
70780;SDS011;59514;48.810;2.134;2022-12-07T03:00:41;23.13;;;15.68;;
70780;SDS011;59514;48.810;2.134;2022-12-07T03:03:19;20.27;;;15.05;;
70780;SDS011;59514;48.810;2.134;2022-12-07T03:08:33;22.83;;;15.30;;
70780;SDS011;59514;48.810;2.134;2022-12-07T03:11:14;21.08;;;14.50;;
70780;SDS011;59514;48.810;2.134;2022-12-07T03:13:58;19.92;;;14.32;;
70780;SDS011;59514;48.810;2.134;2022-12-07T03:16:43;18.70;;;13.57;;
70780;SDS011;59514;48.810;2.134;2022-12-07T03:19:17;19.25;;;14.48;;
70780;SDS011;59514;48.810;2.134;2022-12-07T03:21:46;19.35;;;13.65;;
70780;SDS011;59514;48.810;2.134;2022-12-07T03:24:20;16.80;;;13.85;;
70780;SDS011;59514;48.810;2.134;2022-12-07T03:26:58;18.65;;;14.10;;
70780;SDS011;59514;48.810;2.134;2022-12-07T03:29:31;19.67;;;14.40;;
70780;SDS011;59514;48.810;2.134;2022-12-07T03:32:14;18.35;;;14.00;;
70780;SDS011;59514;48.810;2.134;2022-12-07T03:34:52;21.38;;;14.60;;
70780;SDS011;59514;48.810;2.134;2022-12-07T03:37:31;17.20;;;13.32;;
70780;SDS011;59514;48.810;2.134;2022-12-07T03:42:32;17.85;;;13.13;;
70780;SDS011;59514;48.810;2.134;2022-12-07T03:44:58;18.05;;;14.43;;
70780;SDS011;59514;48.810;2.134;2022-12-07T03:47:29;17.60;;;12.98;;
70780;SDS011;59514;48.810;2.134;2022-12-07T03:50:07;17.20;;;13.77;;
70780;SDS011;59514;48.810;2.134;2022-12-07T03:52:53;18.58;;;13.65;;
70780;SDS011;59514;48.810;2.134;2022-12-07T03:55:26;19.15;;;13.18;;
70780;SDS011;59514;48.810;2.134;2022-12-07T03:57:55;27.52;;;12.73;;
70780;SDS011;59514;48.810;2.134;2022-12-07T04:00:25;56.38;;;14.23;;
70780;SDS011;59514;48.810;2.134;2022-12-07T04:02:51;27.08;;;12.90;;
70780;SDS011;59514;48.810;2.134;2022-12-07T04:05:17;56.00;;;14.07;;
70780;SDS011;59514;48.810;2.134;2022-12-07T04:07:43;23.48;;;13.30;;
70780;SDS011;59514;48.810;2.134;2022-12-07T04:10:08;24.38;;;12.90;;
70780;SDS011;59514;48.810;2.134;2022-12-07T04:12:34;55.25;;;13.70;;
70780;SDS011;59514;48.810;2.134;2022-12-07T04:14:59;71.00;;;15.88;;
70780;SDS011;59514;48.810;2.134;2022-12-07T04:17:25;35.72;;;13.50;;
70780;SDS011;59514;48.810;2.134;2022-12-07T04:19:50;59.05;;;14.20;;
70780;SDS011;59514;48.810;2.134;2022-12-07T04:22:15;144.93;;;18.52;;
70780;SDS011;59514;48.810;2.134;2022-12-07T04:24:40;101.28;;;17.00;;
70780;SDS011;59514;48.810;2.134;2022-12-07T04:27:06;84.28;;;15.18;;
70780;SDS011;59514;48.810;2.134;2022-12-07T04:29:31;223.27;;;21.83;;
70780;SDS011;59514;48.810;2.134;2022-12-07T04:31:56;133.48;;;18.50;;
70780;SDS011;59514;48.810;2.134;2022-12-07T04:34:22;45.20;;;13.77;;
70780;SDS011;59514;48.810;2.134;2022-12-07T04:36:47;47.83;;;12.52;;
70780;SDS011;59514;48.810;2.134;2022-12-07T04:39:28;28.67;;;12.75;;
70780;SDS011;59514;48.810;2.134;2022-12-07T04:41:55;92.78;;;16.38;;
70780;SDS011;59514;48.810;2.134;2022-12-07T04:44:21;47.40;;;13.30;;
70780;SDS011;59514;48.810;2.134;2022-12-07T04:46:48;85.72;;;16.42;;
70780;SDS011;59514;48.810;2.134;2022-12-07T04:49:14;124.75;;;17.73;;
70780;SDS011;59514;48.810;2.134;2022-12-07T04:51:40;40.85;;;13.40;;
70780;SDS011;59514;48.810;2.134;2022-12-07T04:54:06;37.88;;;13.32;;
70780;SDS011;59514;48.810;2.134;2022-12-07T04:56:32;38.10;;;13.38;;
70780;SDS011;59514;48.810;2.134;2022-12-07T04:58:57;20.05;;;11.73;;
70780;SDS011;59514;48.810;2.134;2022-12-07T05:01:23;18.77;;;11.23;;
70780;SDS011;59514;48.810;2.134;2022-12-07T05:03:49;41.53;;;12.68;;
70780;SDS011;59514;48.810;2.134;2022-12-07T05:06:15;30.90;;;11.18;;
70780;SDS011;59514;48.810;2.134;2022-12-07T05:08:41;22.95;;;10.40;;
70780;SDS011;59514;48.810;2.134;2022-12-07T05:11:09;16.52;;;10.80;;
70780;SDS011;59514;48.810;2.134;2022-12-07T05:13:55;12.82;;;10.10;;
70780;SDS011;59514;48.810;2.134;2022-12-07T05:16:21;38.60;;;11.50;;
70780;SDS011;59514;48.810;2.134;2022-12-07T05:18:46;33.40;;;11.55;;
70780;SDS011;59514;48.810;2.134;2022-12-07T05:21:12;18.67;;;11.02;;
70780;SDS011;59514;48.810;2.134;2022-12-07T05:23:37;44.15;;;12.45;;
70780;SDS011;59514;48.810;2.134;2022-12-07T05:26:02;19.13;;;11.00;;
70780;SDS011;59514;48.810;2.134;2022-12-07T05:28:28;32.03;;;11.13;;
70780;SDS011;59514;48.810;2.134;2022-12-07T05:30:53;17.00;;;11.05;;
70780;SDS011;59514;48.810;2.134;2022-12-07T05:33:18;21.23;;;11.75;;
70780;SDS011;59514;48.810;2.134;2022-12-07T05:35:43;16.40;;;11.15;;
70780;SDS011;59514;48.810;2.134;2022-12-07T05:38:09;16.05;;;11.40;;
70780;SDS011;59514;48.810;2.134;2022-12-07T05:40:34;18.02;;;11.02;;
70780;SDS011;59514;48.810;2.134;2022-12-07T05:42:59;17.23;;;10.48;;
70780;SDS011;59514;48.810;2.134;2022-12-07T05:45:25;13.52;;;10.50;;
70780;SDS011;59514;48.810;2.134;2022-12-07T05:47:50;14.15;;;10.68;;
70780;SDS011;59514;48.810;2.134;2022-12-07T05:50:15;14.65;;;10.13;;
70780;SDS011;59514;48.810;2.134;2022-12-07T05:52:40;13.27;;;9.63;;
70780;SDS011;59514;48.810;2.134;2022-12-07T05:55:06;12.23;;;9.57;;
70780;SDS011;59514;48.810;2.134;2022-12-07T05:57:32;11.40;;;9.52;;
70780;SDS011;59514;48.810;2.134;2022-12-07T05:59:57;12.27;;;10.13;;
70780;SDS011;59514;48.810;2.134;2022-12-07T06:02:22;11.48;;;9.48;;
70780;SDS011;59514;48.810;2.134;2022-12-07T06:04:48;13.00;;;9.68;;
70780;SDS011;59514;48.810;2.134;2022-12-07T06:07:14;11.13;;;9.93;;
70780;SDS011;59514;48.810;2.134;2022-12-07T06:09:40;11.25;;;9.45;;
70780;SDS011;59514;48.810;2.134;2022-12-07T06:12:06;13.45;;;9.52;;
70780;SDS011;59514;48.810;2.134;2022-12-07T06:14:50;12.40;;;9.75;;
70780;SDS011;59514;48.810;2.134;2022-12-07T06:17:16;13.23;;;9.88;;
70780;SDS011;59514;48.810;2.134;2022-12-07T06:19:42;10.95;;;9.75;;
70780;SDS011;59514;48.810;2.134;2022-12-07T06:22:07;12.68;;;9.85;;
70780;SDS011;59514;48.810;2.134;2022-12-07T06:24:36;12.32;;;9.88;;
70780;SDS011;59514;48.810;2.134;2022-12-07T06:27:03;11.10;;;9.80;;
70780;SDS011;59514;48.810;2.134;2022-12-07T06:29:28;14.30;;;10.13;;
70780;SDS011;59514;48.810;2.134;2022-12-07T06:31:54;14.40;;;9.68;;
70780;SDS011;59514;48.810;2.134;2022-12-07T06:34:20;12.35;;;10.18;;
70780;SDS011;59514;48.810;2.134;2022-12-07T06:36:47;13.10;;;10.73;;
70780;SDS011;59514;48.810;2.134;2022-12-07T06:39:16;12.80;;;10.73;;
70780;SDS011;59514;48.810;2.134;2022-12-07T06:41:43;13.32;;;10.70;;
70780;SDS011;59514;48.810;2.134;2022-12-07T06:44:08;13.63;;;10.88;;
70780;SDS011;59514;48.810;2.134;2022-12-07T06:46:33;14.63;;;11.02;;
70780;SDS011;59514;48.810;2.134;2022-12-07T06:49:00;11.20;;;10.07;;
70780;SDS011;59514;48.810;2.134;2022-12-07T06:51:25;15.93;;;10.77;;
70780;SDS011;59514;48.810;2.134;2022-12-07T06:53:51;14.43;;;10.68;;
70780;SDS011;59514;48.810;2.134;2022-12-07T06:56:16;17.08;;;11.98;;
70780;SDS011;59514;48.810;2.134;2022-12-07T06:58:41;14.15;;;11.40;;
70780;SDS011;59514;48.810;2.134;2022-12-07T07:01:10;14.00;;;11.07;;
70780;SDS011;59514;48.810;2.134;2022-12-07T07:03:37;12.60;;;10.77;;
70780;SDS011;59514;48.810;2.134;2022-12-07T07:06:03;15.55;;;11.93;;
70780;SDS011;59514;48.810;2.134;2022-12-07T07:08:29;12.77;;;11.05;;
70780;SDS011;59514;48.810;2.134;2022-12-07T07:10:54;15.45;;;11.50;;
70780;SDS011;59514;48.810;2.134;2022-12-07T07:13:19;13.30;;;11.18;;
70780;SDS011;59514;48.810;2.134;2022-12-07T07:15:45;15.38;;;10.90;;
70780;SDS011;59514;48.810;2.134;2022-12-07T07:18:10;13.80;;;11.27;;
70780;SDS011;59514;48.810;2.134;2022-12-07T07:20:36;12.45;;;11.02;;
70780;SDS011;59514;48.810;2.134;2022-12-07T07:23:01;14.65;;;10.85;;
70780;SDS011;59514;48.810;2.134;2022-12-07T07:25:27;13.98;;;10.38;;
70780;SDS011;59514;48.810;2.134;2022-12-07T07:27:52;13.98;;;11.00;;
70780;SDS011;59514;48.810;2.134;2022-12-07T07:30:18;14.75;;;11.50;;
70780;SDS011;59514;48.810;2.134;2022-12-07T07:32:43;14.90;;;11.30;;
70780;SDS011;59514;48.810;2.134;2022-12-07T07:35:08;16.02;;;10.55;;
70780;SDS011;59514;48.810;2.134;2022-12-07T07:37:34;13.48;;;10.52;;
70780;SDS011;59514;48.810;2.134;2022-12-07T07:39:59;13.30;;;10.85;;
70780;SDS011;59514;48.810;2.134;2022-12-07T07:42:24;12.23;;;10.13;;
70780;SDS011;59514;48.810;2.134;2022-12-07T07:44:50;15.18;;;11.15;;
70780;SDS011;59514;48.810;2.134;2022-12-07T07:47:15;13.27;;;10.77;;
70780;SDS011;59514;48.810;2.134;2022-12-07T07:49:40;13.45;;;10.90;;
70780;SDS011;59514;48.810;2.134;2022-12-07T07:52:06;13.27;;;11.68;;
70780;SDS011;59514;48.810;2.134;2022-12-07T07:54:31;13.50;;;10.95;;
70780;SDS011;59514;48.810;2.134;2022-12-07T07:56:57;17.38;;;11.80;;
70780;SDS011;59514;48.810;2.134;2022-12-07T07:59:22;14.25;;;11.20;;
70780;SDS011;59514;48.810;2.134;2022-12-07T08:01:48;15.13;;;11.93;;
70780;SDS011;59514;48.810;2.134;2022-12-07T08:04:13;16.60;;;11.63;;
70780;SDS011;59514;48.810;2.134;2022-12-07T08:06:39;16.13;;;11.45;;
70780;SDS011;59514;48.810;2.134;2022-12-07T08:09:04;15.05;;;11.95;;
70780;SDS011;59514;48.810;2.134;2022-12-07T08:11:30;17.23;;;11.45;;
70780;SDS011;59514;48.810;2.134;2022-12-07T08:13:56;16.60;;;12.25;;
70780;SDS011;59514;48.810;2.134;2022-12-07T08:16:21;16.23;;;11.45;;
70780;SDS011;59514;48.810;2.134;2022-12-07T08:18:46;14.48;;;11.25;;
70780;SDS011;59514;48.810;2.134;2022-12-07T08:21:12;16.70;;;12.32;;
70780;SDS011;59514;48.810;2.134;2022-12-07T08:23:39;14.50;;;11.73;;
70780;SDS011;59514;48.810;2.134;2022-12-07T08:26:12;18.73;;;12.55;;
70780;SDS011;59514;48.810;2.134;2022-12-07T08:28:39;15.57;;;11.32;;
70780;SDS011;59514;48.810;2.134;2022-12-07T08:31:05;16.27;;;11.52;;
70780;SDS011;59514;48.810;2.134;2022-12-07T08:33:34;15.77;;;11.63;;
70780;SDS011;59514;48.810;2.134;2022-12-07T08:36:03;14.63;;;12.07;;
70780;SDS011;59514;48.810;2.134;2022-12-07T08:38:30;16.15;;;12.38;;
70780;SDS011;59514;48.810;2.134;2022-12-07T08:40:56;16.33;;;12.98;;
70780;SDS011;59514;48.810;2.134;2022-12-07T08:43:22;19.23;;;13.05;;
70780;SDS011;59514;48.810;2.134;2022-12-07T08:45:48;17.63;;;12.98;;
70780;SDS011;59514;48.810;2.134;2022-12-07T08:48:26;17.70;;;12.48;;
70780;SDS011;59514;48.810;2.134;2022-12-07T08:50:52;15.18;;;11.88;;
70780;SDS011;59514;48.810;2.134;2022-12-07T08:53:17;16.40;;;11.85;;
70780;SDS011;59514;48.810;2.134;2022-12-07T08:55:43;15.93;;;12.13;;
70780;SDS011;59514;48.810;2.134;2022-12-07T08:58:10;17.02;;;12.90;;
70780;SDS011;59514;48.810;2.134;2022-12-07T09:00:36;19.80;;;13.13;;
70780;SDS011;59514;48.810;2.134;2022-12-07T09:03:01;17.05;;;12.13;;
70780;SDS011;59514;48.810;2.134;2022-12-07T09:05:26;18.98;;;12.63;;
70780;SDS011;59514;48.810;2.134;2022-12-07T09:07:54;16.65;;;12.88;;
70780;SDS011;59514;48.810;2.134;2022-12-07T09:10:22;17.10;;;11.88;;
70780;SDS011;59514;48.810;2.134;2022-12-07T09:12:48;16.73;;;12.55;;
70780;SDS011;59514;48.810;2.134;2022-12-07T09:15:13;14.68;;;11.18;;
70780;SDS011;59514;48.810;2.134;2022-12-07T09:17:39;12.20;;;10.80;;
70780;SDS011;59514;48.810;2.134;2022-12-07T09:20:05;14.23;;;11.40;;
70780;SDS011;59514;48.810;2.134;2022-12-07T09:22:31;15.73;;;11.57;;
70780;SDS011;59514;48.810;2.134;2022-12-07T09:24:58;12.55;;;10.20;;
70780;SDS011;59514;48.810;2.134;2022-12-07T09:27:24;15.95;;;11.40;;
70780;SDS011;59514;48.810;2.134;2022-12-07T09:29:50;15.07;;;11.40;;
70780;SDS011;59514;48.810;2.134;2022-12-07T09:32:15;16.60;;;12.48;;
70780;SDS011;59514;48.810;2.134;2022-12-07T09:34:41;15.50;;;11.25;;
70780;SDS011;59514;48.810;2.134;2022-12-07T09:37:06;16.00;;;12.10;;
70780;SDS011;59514;48.810;2.134;2022-12-07T09:39:32;13.73;;;12.15;;
70780;SDS011;59514;48.810;2.134;2022-12-07T09:41:57;15.25;;;11.68;;
70780;SDS011;59514;48.810;2.134;2022-12-07T09:44:27;15.52;;;12.52;;
70780;SDS011;59514;48.810;2.134;2022-12-07T09:46:53;13.88;;;11.40;;
70780;SDS011;59514;48.810;2.134;2022-12-07T09:49:20;15.25;;;12.07;;
70780;SDS011;59514;48.810;2.134;2022-12-07T09:51:47;16.17;;;12.05;;
70780;SDS011;59514;48.810;2.134;2022-12-07T09:54:24;16.73;;;12.90;;
70780;SDS011;59514;48.810;2.134;2022-12-07T09:56:49;18.85;;;13.30;;
70780;SDS011;59514;48.810;2.134;2022-12-07T09:59:18;14.18;;;11.90;;
70780;SDS011;59514;48.810;2.134;2022-12-07T10:01:44;19.23;;;13.52;;
70780;SDS011;59514;48.810;2.134;2022-12-07T10:06:41;17.23;;;13.43;;
70780;SDS011;59514;48.810;2.134;2022-12-07T10:09:11;15.85;;;12.52;;
70780;SDS011;59514;48.810;2.134;2022-12-07T10:14:36;15.23;;;12.35;;
70780;SDS011;59514;48.810;2.134;2022-12-07T10:17:25;18.80;;;13.48;;
70780;SDS011;59514;48.810;2.134;2022-12-07T10:20:15;16.60;;;12.48;;
70780;SDS011;59514;48.810;2.134;2022-12-07T10:23:01;15.20;;;11.88;;
70780;SDS011;59514;48.810;2.134;2022-12-07T10:25:38;16.20;;;12.05;;
70780;SDS011;59514;48.810;2.134;2022-12-07T10:30:53;17.45;;;12.80;;
70780;SDS011;59514;48.810;2.134;2022-12-07T10:35:58;16.77;;;12.02;;
70780;SDS011;59514;48.810;2.134;2022-12-07T10:38:25;14.48;;;12.25;;
70780;SDS011;59514;48.810;2.134;2022-12-07T10:41:02;16.10;;;11.85;;
70780;SDS011;59514;48.810;2.134;2022-12-07T10:43:29;17.17;;;13.35;;
70780;SDS011;59514;48.810;2.134;2022-12-07T10:56:40;14.45;;;12.27;;
70780;SDS011;59514;48.810;2.134;2022-12-07T10:59:37;17.40;;;12.88;;
70780;SDS011;59514;48.810;2.134;2022-12-07T11:05:11;15.82;;;12.52;;
70780;SDS011;59514;48.810;2.134;2022-12-07T11:10:33;14.50;;;12.45;;
70780;SDS011;59514;48.810;2.134;2022-12-07T11:18:42;19.20;;;13.80;;
70780;SDS011;59514;48.810;2.134;2022-12-07T11:24:16;17.38;;;13.43;;
70780;SDS011;59514;48.810;2.134;2022-12-07T11:29:32;15.65;;;12.85;;
70780;SDS011;59514;48.810;2.134;2022-12-07T11:37:38;17.73;;;12.57;;
70780;SDS011;59514;48.810;2.134;2022-12-07T11:40:14;17.73;;;14.57;;
70780;SDS011;59514;48.810;2.134;2022-12-07T11:42:50;16.38;;;12.80;;
70780;SDS011;59514;48.810;2.134;2022-12-07T11:45:23;16.45;;;14.00;;
70780;SDS011;59514;48.810;2.134;2022-12-07T11:58:51;20.70;;;15.13;;
70780;SDS011;59514;48.810;2.134;2022-12-07T12:02:00;25.33;;;17.17;;
70780;SDS011;59514;48.810;2.134;2022-12-07T12:03:58;22.63;;;15.93;;
70780;SDS011;59514;48.810;2.134;2022-12-07T12:06:32;24.30;;;17.15;;
70780;SDS011;59514;48.810;2.134;2022-12-07T12:09:16;24.38;;;17.00;;
70780;SDS011;59514;48.810;2.134;2022-12-07T12:12:01;36.58;;;18.52;;
70780;SDS011;59514;48.810;2.134;2022-12-07T12:14:55;37.55;;;18.73;;
70780;SDS011;59514;48.810;2.134;2022-12-07T12:21:04;35.33;;;17.90;;
70780;SDS011;59514;48.810;2.134;2022-12-07T12:23:41;24.85;;;18.13;;
70780;SDS011;59514;48.810;2.134;2022-12-07T12:26:16;28.35;;;17.70;;
70780;SDS011;59514;48.810;2.134;2022-12-07T12:29:04;34.13;;;19.33;;
70780;SDS011;59514;48.810;2.134;2022-12-07T12:31:35;24.67;;;18.73;;
70780;SDS011;59514;48.810;2.134;2022-12-07T12:34:29;30.73;;;19.67;;
70780;SDS011;59514;48.810;2.134;2022-12-07T12:36:55;33.88;;;20.65;;
70780;SDS011;59514;48.810;2.134;2022-12-07T12:39:21;28.13;;;19.63;;
70780;SDS011;59514;48.810;2.134;2022-12-07T12:49:42;34.55;;;19.30;;
70780;SDS011;59514;48.810;2.134;2022-12-07T12:55:13;32.67;;;19.35;;
70780;SDS011;59514;48.810;2.134;2022-12-07T12:57:45;27.30;;;19.20;;
70780;SDS011;59514;48.810;2.134;2022-12-07T13:00:21;26.90;;;19.77;;
70780;SDS011;59514;48.810;2.134;2022-12-07T13:02:52;32.65;;;19.70;;
70780;SDS011;59514;48.810;2.134;2022-12-07T13:05:20;31.07;;;19.30;;
70780;SDS011;59514;48.810;2.134;2022-12-07T13:07:54;49.70;;;21.35;;
70780;SDS011;59514;48.810;2.134;2022-12-07T13:18:04;27.48;;;19.83;;
70780;SDS011;59514;48.810;2.134;2022-12-07T13:20:52;25.98;;;19.30;;
70780;SDS011;59514;48.810;2.134;2022-12-07T13:23:51;31.27;;;22.25;;
70780;SDS011;59514;48.810;2.134;2022-12-07T13:31:42;47.00;;;19.70;;
70780;SDS011;59514;48.810;2.134;2022-12-07T13:34:36;32.75;;;20.17;;
70780;SDS011;59514;48.810;2.134;2022-12-07T13:39:46;30.20;;;20.42;;
70780;SDS011;59514;48.810;2.134;2022-12-07T13:42:26;30.63;;;21.25;;
70780;SDS011;59514;48.810;2.134;2022-12-07T13:44:53;29.40;;;20.15;;
70780;SDS011;59514;48.810;2.134;2022-12-07T13:49:57;30.25;;;21.35;;
70780;SDS011;59514;48.810;2.134;2022-12-07T13:52:24;28.27;;;20.63;;
70780;SDS011;59514;48.810;2.134;2022-12-07T13:57:22;28.98;;;21.27;;
70780;SDS011;59514;48.810;2.134;2022-12-07T13:59:50;31.10;;;20.65;;
70780;SDS011;59514;48.810;2.134;2022-12-07T14:02:19;29.33;;;20.27;;
70780;SDS011;59514;48.810;2.134;2022-12-07T14:04:48;27.10;;;19.15;;
70780;SDS011;59514;48.810;2.134;2022-12-07T14:07:25;31.15;;;19.92;;
70780;SDS011;59514;48.810;2.134;2022-12-07T14:12:24;29.33;;;20.63;;
70780;SDS011;59514;48.810;2.134;2022-12-07T14:14:50;26.92;;;20.02;;
70780;SDS011;59514;48.810;2.134;2022-12-07T14:17:21;29.33;;;21.10;;
70780;SDS011;59514;48.810;2.134;2022-12-07T14:24:59;31.10;;;21.58;;
70780;SDS011;59514;48.810;2.134;2022-12-07T14:27:29;24.83;;;18.20;;
70780;SDS011;59514;48.810;2.134;2022-12-07T14:30:00;20.52;;;17.08;;
70780;SDS011;59514;48.810;2.134;2022-12-07T14:32:27;22.95;;;16.02;;
70780;SDS011;59514;48.810;2.134;2022-12-07T14:35:01;18.65;;;14.93;;
70780;SDS011;59514;48.810;2.134;2022-12-07T14:37:33;20.50;;;15.27;;
70780;SDS011;59514;48.810;2.134;2022-12-07T14:39:58;19.98;;;14.80;;
70780;SDS011;59514;48.810;2.134;2022-12-07T14:42:24;17.38;;;14.63;;
70780;SDS011;59514;48.810;2.134;2022-12-07T14:44:53;15.82;;;13.45;;
70780;SDS011;59514;48.810;2.134;2022-12-07T14:47:19;18.83;;;13.48;;
70780;SDS011;59514;48.810;2.134;2022-12-07T14:49:44;18.70;;;12.60;;
70780;SDS011;59514;48.810;2.134;2022-12-07T14:52:13;15.95;;;11.10;;
70780;SDS011;59514;48.810;2.134;2022-12-07T14:54:41;14.65;;;11.05;;
70780;SDS011;59514;48.810;2.134;2022-12-07T14:57:08;14.32;;;12.38;;
70780;SDS011;59514;48.810;2.134;2022-12-07T14:59:35;16.35;;;12.65;;
70780;SDS011;59514;48.810;2.134;2022-12-07T15:02:00;16.13;;;12.98;;
70780;SDS011;59514;48.810;2.134;2022-12-07T15:04:25;14.77;;;11.75;;
70780;SDS011;59514;48.810;2.134;2022-12-07T15:06:55;16.98;;;12.82;;
70780;SDS011;59514;48.810;2.134;2022-12-07T15:09:28;16.40;;;12.75;;
70780;SDS011;59514;48.810;2.134;2022-12-07T15:11:53;13.15;;;10.80;;
70780;SDS011;59514;48.810;2.134;2022-12-07T15:14:18;15.35;;;11.52;;
70780;SDS011;59514;48.810;2.134;2022-12-07T15:16:44;15.68;;;11.23;;
70780;SDS011;59514;48.810;2.134;2022-12-07T15:19:10;15.70;;;10.68;;
70780;SDS011;59514;48.810;2.134;2022-12-07T15:21:39;16.35;;;9.90;;
70780;SDS011;59514;48.810;2.134;2022-12-07T15:24:05;15.88;;;10.40;;
70780;SDS011;59514;48.810;2.134;2022-12-07T15:26:30;12.95;;;10.57;;
70780;SDS011;59514;48.810;2.134;2022-12-07T15:28:56;12.80;;;9.85;;
70780;SDS011;59514;48.810;2.134;2022-12-07T15:31:21;13.75;;;9.55;;
70780;SDS011;59514;48.810;2.134;2022-12-07T15:33:47;13.00;;;9.88;;
70780;SDS011;59514;48.810;2.134;2022-12-07T15:36:18;13.38;;;10.07;;
70780;SDS011;59514;48.810;2.134;2022-12-07T15:38:46;12.18;;;9.57;;
70780;SDS011;59514;48.810;2.134;2022-12-07T15:41:11;11.45;;;9.43;;
70780;SDS011;59514;48.810;2.134;2022-12-07T15:43:37;15.40;;;10.38;;
70780;SDS011;59514;48.810;2.134;2022-12-07T15:46:21;14.80;;;9.98;;
70780;SDS011;59514;48.810;2.134;2022-12-07T15:48:46;15.65;;;9.90;;
70780;SDS011;59514;48.810;2.134;2022-12-07T15:51:12;14.82;;;10.90;;
70780;SDS011;59514;48.810;2.134;2022-12-07T15:53:37;17.23;;;10.75;;
70780;SDS011;59514;48.810;2.134;2022-12-07T15:56:06;14.25;;;10.27;;
70780;SDS011;59514;48.810;2.134;2022-12-07T15:58:33;13.88;;;10.52;;
70780;SDS011;59514;48.810;2.134;2022-12-07T16:00:58;15.98;;;11.38;;
70780;SDS011;59514;48.810;2.134;2022-12-07T16:03:24;18.70;;;11.88;;
70780;SDS011;59514;48.810;2.134;2022-12-07T16:05:50;14.05;;;10.95;;
70780;SDS011;59514;48.810;2.134;2022-12-07T16:08:16;19.00;;;11.85;;
70780;SDS011;59514;48.810;2.134;2022-12-07T16:10:41;17.88;;;11.30;;
70780;SDS011;59514;48.810;2.134;2022-12-07T16:13:08;14.55;;;10.50;;
70780;SDS011;59514;48.810;2.134;2022-12-07T16:15:41;14.13;;;10.10;;
70780;SDS011;59514;48.810;2.134;2022-12-07T16:18:07;16.27;;;10.45;;
70780;SDS011;59514;48.810;2.134;2022-12-07T16:20:32;17.05;;;10.48;;
70780;SDS011;59514;48.810;2.134;2022-12-07T16:22:58;18.25;;;11.52;;
70780;SDS011;59514;48.810;2.134;2022-12-07T16:25:24;14.15;;;10.05;;
70780;SDS011;59514;48.810;2.134;2022-12-07T16:27:50;15.02;;;10.55;;
70780;SDS011;59514;48.810;2.134;2022-12-07T16:30:16;16.67;;;12.80;;
70780;SDS011;59514;48.810;2.134;2022-12-07T16:32:41;20.65;;;13.15;;
70780;SDS011;59514;48.810;2.134;2022-12-07T16:35:08;18.55;;;10.02;;
70780;SDS011;59514;48.810;2.134;2022-12-07T16:37:33;14.85;;;10.45;;
70780;SDS011;59514;48.810;2.134;2022-12-07T16:39:59;14.40;;;10.70;;